sensor_id;sensor_type;location;lat;lon;timestamp;pressure;altitude;pressure_sealevel;temperature;humidity
39699;BME280;25372;50.582;12.250;2023-04-08T00:07:26;100132.44;;;2.73;88.36
39699;BME280;25372;50.582;12.250;2023-04-08T00:17:48;100131.53;;;2.74;87.76
39699;BME280;25372;50.582;12.250;2023-04-08T00:28:09;100125.25;;;2.83;88.17
39699;BME280;25372;50.582;12.250;2023-04-08T00:38:31;100128.44;;;2.93;88.36
39699;BME280;25372;50.582;12.250;2023-04-08T00:48:53;100129.31;;;2.93;88.08
39699;BME280;25372;50.582;12.250;2023-04-08T00:59:16;100130.97;;;2.96;88.28
39699;BME280;25372;50.582;12.250;2023-04-08T01:09:53;100122.56;;;2.86;88.76
39699;BME280;25372;50.582;12.250;2023-04-08T01:20:17;100122.31;;;2.96;88.95
39699;BME280;25372;50.582;12.250;2023-04-08T01:30:40;100116.16;;;3.00;89.23
39699;BME280;25372;50.582;12.250;2023-04-08T01:41:02;100114.50;;;2.97;89.11
39699;BME280;25372;50.582;12.250;2023-04-08T01:51:25;100110.03;;;3.02;89.55
39699;BME280;25372;50.582;12.250;2023-04-08T02:01:47;100110.00;;;3.04;89.40
39699;BME280;25372;50.582;12.250;2023-04-08T02:12:10;100115.97;;;3.06;89.56
39699;BME280;25372;50.582;12.250;2023-04-08T02:22:39;100129.56;;;3.16;89.42
39699;BME280;25372;50.582;12.250;2023-04-08T02:33:03;100120.78;;;3.20;89.69
39699;BME280;25372;50.582;12.250;2023-04-08T02:43:24;100136.38;;;3.20;89.80
39699;BME280;25372;50.582;12.250;2023-04-08T02:53:51;100146.53;;;3.28;89.88
39699;BME280;25372;50.582;12.250;2023-04-08T03:04:12;100150.00;;;3.27;89.86
39699;BME280;25372;50.582;12.250;2023-04-08T03:14:34;100143.75;;;3.34;89.51
39699;BME280;25372;50.582;12.250;2023-04-08T03:24:55;100138.75;;;3.28;89.83
39699;BME280;25372;50.582;12.250;2023-04-08T03:35:16;100142.91;;;3.33;89.79
39699;BME280;25372;50.582;12.250;2023-04-08T03:45:37;100134.28;;;3.33;90.08
39699;BME280;25372;50.582;12.250;2023-04-08T03:55:59;100132.66;;;3.29;90.11
39699;BME280;25372;50.582;12.250;2023-04-08T04:06:21;100145.59;;;3.30;90.10
39699;BME280;25372;50.582;12.250;2023-04-08T04:16:43;100155.06;;;3.33;90.19
39699;BME280;25372;50.582;12.250;2023-04-08T04:27:04;100152.44;;;3.33;90.30
39699;BME280;25372;50.582;12.250;2023-04-08T04:37:26;100159.38;;;3.32;90.55
39699;BME280;25372;50.582;12.250;2023-04-08T04:47:47;100160.19;;;3.34;90.55
39699;BME280;25372;50.582;12.250;2023-04-08T04:58:09;100188.31;;;3.50;90.67
39699;BME280;25372;50.582;12.250;2023-04-08T05:08:30;100191.97;;;3.43;90.87
39699;BME280;25372;50.582;12.250;2023-04-08T05:18:51;100196.94;;;3.50;90.54
39699;BME280;25372;50.582;12.250;2023-04-08T05:29:12;100196.59;;;3.63;90.65
39699;BME280;25372;50.582;12.250;2023-04-08T05:39:34;100205.16;;;3.67;90.36
39699;BME280;25372;50.582;12.250;2023-04-08T05:49:55;100205.78;;;3.75;90.14
39699;BME280;25372;50.582;12.250;2023-04-08T06:00:17;100211.88;;;3.74;90.24
39699;BME280;25372;50.582;12.250;2023-04-08T06:10:39;100217.41;;;3.91;89.74
39699;BME280;25372;50.582;12.250;2023-04-08T06:21:00;100237.69;;;4.09;89.78
39699;BME280;25372;50.582;12.250;2023-04-08T06:31:21;100236.06;;;4.06;89.90
39699;BME280;25372;50.582;12.250;2023-04-08T06:41:44;100244.91;;;4.29;89.49
39699;BME280;25372;50.582;12.250;2023-04-08T06:52:28;100258.56;;;4.36;89.72
39699;BME280;25372;50.582;12.250;2023-04-08T07:02:50;100274.38;;;4.56;89.72
39699;BME280;25372;50.582;12.250;2023-04-08T07:13:11;100285.34;;;4.66;89.08
39699;BME280;25372;50.582;12.250;2023-04-08T07:23:33;100295.72;;;4.68;89.55
39699;BME280;25372;50.582;12.250;2023-04-08T07:33:53;100302.53;;;4.99;88.07
39699;BME280;25372;50.582;12.250;2023-04-08T07:44:16;100313.97;;;5.71;86.37
39699;BME280;25372;50.582;12.250;2023-04-08T07:54:38;100327.06;;;5.69;86.38
39699;BME280;25372;50.582;12.250;2023-04-08T08:05:01;100329.16;;;5.59;82.39
39699;BME280;25372;50.582;12.250;2023-04-08T08:15:22;100341.81;;;5.94;80.25
39699;BME280;25372;50.582;12.250;2023-04-08T08:25:44;100338.81;;;6.75;78.59
39699;BME280;25372;50.582;12.250;2023-04-08T08:36:05;100348.94;;;6.83;76.48
39699;BME280;25372;50.582;12.250;2023-04-08T08:46:27;100364.66;;;6.81;75.94
39699;BME280;25372;50.582;12.250;2023-04-08T08:56:48;100368.75;;;6.89;74.08
39699;BME280;25372;50.582;12.250;2023-04-08T09:07:10;100380.06;;;7.53;72.65
39699;BME280;25372;50.582;12.250;2023-04-08T09:17:33;100392.13;;;7.35;72.77
39699;BME280;25372;50.582;12.250;2023-04-08T09:27:55;100397.72;;;7.05;73.77
39699;BME280;25372;50.582;12.250;2023-04-08T09:38:16;100414.69;;;6.93;75.42
39699;BME280;25372;50.582;12.250;2023-04-08T09:48:39;100402.53;;;7.57;70.02
39699;BME280;25372;50.582;12.250;2023-04-08T09:59:08;100403.31;;;7.38;69.80
39699;BME280;25372;50.582;12.250;2023-04-08T10:09:33;100413.06;;;7.97;67.43
39699;BME280;25372;50.582;12.250;2023-04-08T10:19:54;100419.19;;;7.96;67.99
39699;BME280;25372;50.582;12.250;2023-04-08T10:30:38;100434.75;;;7.14;70.28
39699;BME280;25372;50.582;12.250;2023-04-08T10:41:00;100431.09;;;7.62;67.17
39699;BME280;25372;50.582;12.250;2023-04-08T10:51:23;100426.09;;;7.78;65.25
39699;BME280;25372;50.582;12.250;2023-04-08T11:01:45;100427.09;;;8.55;62.90
39699;BME280;25372;50.582;12.250;2023-04-08T11:12:07;100420.94;;;7.95;64.12
39699;BME280;25372;50.582;12.250;2023-04-08T11:22:28;100434.75;;;7.37;67.18
39699;BME280;25372;50.582;12.250;2023-04-08T11:32:54;100446.75;;;7.19;67.85
39699;BME280;25372;50.582;12.250;2023-04-08T11:43:16;100452.91;;;6.95;69.53
39699;BME280;25372;50.582;12.250;2023-04-08T11:53:38;100460.19;;;7.54;69.54
39699;BME280;25372;50.582;12.250;2023-04-08T12:04:00;100447.63;;;8.44;65.59
39699;BME280;25372;50.582;12.250;2023-04-08T12:14:22;100452.91;;;8.23;65.57
39699;BME280;25372;50.582;12.250;2023-04-08T12:24:43;100465.53;;;7.28;69.42
39699;BME280;25372;50.582;12.250;2023-04-08T12:35:06;100472.75;;;6.99;72.49
39699;BME280;25372;50.582;12.250;2023-04-08T12:45:26;100481.06;;;6.87;72.09
39699;BME280;25372;50.582;12.250;2023-04-08T12:55:48;100499.00;;;6.72;74.64
39699;BME280;25372;50.582;12.250;2023-04-08T13:06:10;100494.09;;;6.65;73.30
39699;BME280;25372;50.582;12.250;2023-04-08T13:16:32;100498.78;;;7.47;71.19
39699;BME280;25372;50.582;12.250;2023-04-08T13:26:52;100501.50;;;7.66;69.73
39699;BME280;25372;50.582;12.250;2023-04-08T13:37:14;100505.47;;;7.97;68.41
39699;BME280;25372;50.582;12.250;2023-04-08T13:47:35;100501.00;;;8.00;68.55
39699;BME280;25372;50.582;12.250;2023-04-08T13:57:58;100503.97;;;7.69;68.75
39699;BME280;25372;50.582;12.250;2023-04-08T14:08:19;100508.56;;;8.06;66.67
39699;BME280;25372;50.582;12.250;2023-04-08T14:18:45;100515.66;;;7.38;68.42
39699;BME280;25372;50.582;12.250;2023-04-08T14:29:06;100516.41;;;6.96;69.03
39699;BME280;25372;50.582;12.250;2023-04-08T14:39:28;100540.44;;;6.82;69.38
39699;BME280;25372;50.582;12.250;2023-04-08T14:49:49;100533.81;;;6.97;67.15
39699;BME280;25372;50.582;12.250;2023-04-08T15:00:12;100539.69;;;6.54;69.30
39699;BME280;25372;50.582;12.250;2023-04-08T15:10:34;100546.22;;;6.41;68.97
39699;BME280;25372;50.582;12.250;2023-04-08T15:20:56;100533.56;;;6.55;68.22
39699;BME280;25372;50.582;12.250;2023-04-08T15:31:17;100543.69;;;6.39;69.17
39699;BME280;25372;50.582;12.250;2023-04-08T15:41:39;100554.63;;;6.24;67.74
39699;BME280;25372;50.582;12.250;2023-04-08T15:52:00;100560.69;;;6.26;68.17
39699;BME280;25372;50.582;12.250;2023-04-08T16:02:22;100569.06;;;6.09;67.78
39699;BME280;25372;50.582;12.250;2023-04-08T16:12:42;100578.44;;;6.14;68.05
39699;BME280;25372;50.582;12.250;2023-04-08T16:23:05;100595.59;;;5.93;68.62
39699;BME280;25372;50.582;12.250;2023-04-08T16:33:25;100601.50;;;5.71;69.88
39699;BME280;25372;50.582;12.250;2023-04-08T16:43:50;100600.97;;;5.60;69.71
39699;BME280;25372;50.582;12.250;2023-04-08T16:54:10;100616.56;;;5.33;71.58
39699;BME280;25372;50.582;12.250;2023-04-08T17:04:32;100629.84;;;5.24;71.69
39699;BME280;25372;50.582;12.250;2023-04-08T17:14:53;100632.34;;;5.27;71.89
39699;BME280;25372;50.582;12.250;2023-04-08T17:25:16;100640.41;;;5.17;71.96
39699;BME280;25372;50.582;12.250;2023-04-08T17:35:36;100657.06;;;5.12;72.45
39699;BME280;25372;50.582;12.250;2023-04-08T17:45:59;100658.97;;;4.73;74.46
39699;BME280;25372;50.582;12.250;2023-04-08T17:56:20;100676.16;;;4.46;75.19
39699;BME280;25372;50.582;12.250;2023-04-08T18:06:42;100685.22;;;4.66;74.36
39699;BME280;25372;50.582;12.250;2023-04-08T18:17:03;100694.16;;;4.54;75.06
39699;BME280;25372;50.582;12.250;2023-04-08T18:27:25;100713.94;;;4.61;75.01
39699;BME280;25372;50.582;12.250;2023-04-08T18:37:46;100712.81;;;4.35;75.05
39699;BME280;25372;50.582;12.250;2023-04-08T18:48:08;100734.09;;;4.15;76.26
39699;BME280;25372;50.582;12.250;2023-04-08T18:58:30;100741.25;;;4.05;76.20
39699;BME280;25372;50.582;12.250;2023-04-08T19:08:53;100751.88;;;3.92;76.58
39699;BME280;25372;50.582;12.250;2023-04-08T19:19:14;100752.09;;;3.83;77.93
39699;BME280;25372;50.582;12.250;2023-04-08T19:29:36;100754.41;;;3.55;77.83
39699;BME280;25372;50.582;12.250;2023-04-08T19:39:56;100747.09;;;2.79;80.71
39699;BME280;25372;50.582;12.250;2023-04-08T19:50:18;100749.66;;;2.28;83.29
39699;BME280;25372;50.582;12.250;2023-04-08T20:00:41;100757.47;;;1.57;85.30
39699;BME280;25372;50.582;12.250;2023-04-08T20:11:02;100768.34;;;1.06;86.41
39699;BME280;25372;50.582;12.250;2023-04-08T20:21:23;100771.94;;;0.92;87.65
39699;BME280;25372;50.582;12.250;2023-04-08T20:31:46;100766.72;;;0.97;87.50
39699;BME280;25372;50.582;12.250;2023-04-08T20:42:08;100757.53;;;0.60;86.90
39699;BME280;25372;50.582;12.250;2023-04-08T20:52:30;100766.31;;;0.36;86.90
39699;BME280;25372;50.582;12.250;2023-04-08T21:02:52;100764.69;;;0.21;87.92
39699;BME280;25372;50.582;12.250;2023-04-08T21:13:14;100765.59;;;0.12;87.67
39699;BME280;25372;50.582;12.250;2023-04-08T21:23:35;100794.22;;;-0.39;89.20
39699;BME280;25372;50.582;12.250;2023-04-08T21:33:57;100783.75;;;0.06;88.17
39699;BME280;25372;50.582;12.250;2023-04-08T21:44:18;100795.09;;;-0.47;88.44
39699;BME280;25372;50.582;12.250;2023-04-08T21:54:39;100801.84;;;-0.05;88.30
39699;BME280;25372;50.582;12.250;2023-04-08T22:05:00;100786.53;;;-0.67;88.54
39699;BME280;25372;50.582;12.250;2023-04-08T22:15:23;100788.19;;;-0.29;88.48
39699;BME280;25372;50.582;12.250;2023-04-08T22:25:47;100771.94;;;-0.73;88.20
39699;BME280;25372;50.582;12.250;2023-04-08T22:36:09;100778.84;;;-0.88;87.99
39699;BME280;25372;50.582;12.250;2023-04-08T22:46:30;100760.78;;;-0.89;88.93
39699;BME280;25372;50.582;12.250;2023-04-08T22:56:51;100755.66;;;-0.94;88.27
39699;BME280;25372;50.582;12.250;2023-04-08T23:07:12;100764.28;;;-1.14;88.91
39699;BME280;25372;50.582;12.250;2023-04-08T23:17:34;100768.53;;;-1.53;89.47
39699;BME280;25372;50.582;12.250;2023-04-08T23:27:55;100778.88;;;-1.47;88.88
39699;BME280;25372;50.582;12.250;2023-04-08T23:38:17;100780.56;;;-1.43;88.90
39699;BME280;25372;50.582;12.250;2023-04-08T23:48:37;100794.34;;;-1.33;89.10
39699;BME280;25372;50.582;12.250;2023-04-08T23:59:00;100790.00;;;-1.59;89.02
